sensor_id;sensor_type;location;lat;lon;timestamp;P1;durP1;ratioP1;P2;durP2;ratioP2
37349;SDS011;23231;52.358;4.926;2022-12-18T00:03:52;108.80;;;30.43;;
37349;SDS011;23231;52.358;4.926;2022-12-18T00:08:53;102.73;;;30.10;;
37349;SDS011;23231;52.358;4.926;2022-12-18T00:13:55;104.77;;;30.50;;
37349;SDS011;23231;52.358;4.926;2022-12-18T00:18:56;92.53;;;27.87;;
37349;SDS011;23231;52.358;4.926;2022-12-18T00:23:58;88.10;;;27.37;;
37349;SDS011;23231;52.358;4.926;2022-12-18T00:28:59;99.97;;;29.33;;
37349;SDS011;23231;52.358;4.926;2022-12-18T00:34:01;94.07;;;30.43;;
37349;SDS011;23231;52.358;4.926;2022-12-18T00:39:02;90.47;;;29.77;;
37349;SDS011;23231;52.358;4.926;2022-12-18T00:44:04;98.57;;;28.80;;
37349;SDS011;23231;52.358;4.926;2022-12-18T00:49:06;97.50;;;30.20;;
37349;SDS011;23231;52.358;4.926;2022-12-18T00:54:06;83.57;;;26.53;;
37349;SDS011;23231;52.358;4.926;2022-12-18T00:59:07;83.40;;;26.97;;
37349;SDS011;23231;52.358;4.926;2022-12-18T01:04:07;91.93;;;28.37;;
37349;SDS011;23231;52.358;4.926;2022-12-18T01:09:08;87.73;;;27.83;;
37349;SDS011;23231;52.358;4.926;2022-12-18T01:14:08;96.43;;;28.13;;
37349;SDS011;23231;52.358;4.926;2022-12-18T01:19:08;89.87;;;27.80;;
37349;SDS011;23231;52.358;4.926;2022-12-18T01:24:09;94.47;;;29.13;;
37349;SDS011;23231;52.358;4.926;2022-12-18T01:29:11;88.13;;;29.00;;
37349;SDS011;23231;52.358;4.926;2022-12-18T01:34:12;85.70;;;27.50;;
37349;SDS011;23231;52.358;4.926;2022-12-18T01:39:13;94.43;;;28.77;;
37349;SDS011;23231;52.358;4.926;2022-12-18T01:49:45;99.87;;;30.90;;
37349;SDS011;23231;52.358;4.926;2022-12-18T01:54:46;103.40;;;29.90;;
37349;SDS011;23231;52.358;4.926;2022-12-18T01:59:49;93.67;;;28.43;;
37349;SDS011;23231;52.358;4.926;2022-12-18T02:04:52;93.70;;;28.83;;
37349;SDS011;23231;52.358;4.926;2022-12-18T02:10:04;88.87;;;26.93;;
37349;SDS011;23231;52.358;4.926;2022-12-18T02:31:19;81.63;;;24.80;;
37349;SDS011;23231;52.358;4.926;2022-12-18T02:36:22;92.33;;;28.47;;
37349;SDS011;23231;52.358;4.926;2022-12-18T02:41:23;78.33;;;27.13;;
37349;SDS011;23231;52.358;4.926;2022-12-18T02:46:34;92.37;;;29.87;;
37349;SDS011;23231;52.358;4.926;2022-12-18T02:52:10;76.03;;;25.57;;
37349;SDS011;23231;52.358;4.926;2022-12-18T03:02:49;91.10;;;27.37;;
37349;SDS011;23231;52.358;4.926;2022-12-18T03:08:31;85.53;;;28.47;;
37349;SDS011;23231;52.358;4.926;2022-12-18T03:13:35;84.17;;;27.43;;
37349;SDS011;23231;52.358;4.926;2022-12-18T03:18:43;72.43;;;24.80;;
37349;SDS011;23231;52.358;4.926;2022-12-18T03:23:57;74.80;;;25.97;;
37349;SDS011;23231;52.358;4.926;2022-12-18T03:29:08;72.07;;;25.93;;
37349;SDS011;23231;52.358;4.926;2022-12-18T03:34:13;73.17;;;25.53;;
37349;SDS011;23231;52.358;4.926;2022-12-18T03:39:15;74.50;;;27.17;;
37349;SDS011;23231;52.358;4.926;2022-12-18T03:55:02;79.17;;;28.27;;
37349;SDS011;23231;52.358;4.926;2022-12-18T04:00:08;69.93;;;25.43;;
37349;SDS011;23231;52.358;4.926;2022-12-18T04:05:11;83.37;;;26.40;;
37349;SDS011;23231;52.358;4.926;2022-12-18T04:10:13;70.13;;;25.60;;
37349;SDS011;23231;52.358;4.926;2022-12-18T04:15:14;82.67;;;27.27;;
37349;SDS011;23231;52.358;4.926;2022-12-18T04:20:14;72.43;;;25.33;;
37349;SDS011;23231;52.358;4.926;2022-12-18T04:25:15;67.07;;;24.37;;
37349;SDS011;23231;52.358;4.926;2022-12-18T04:30:16;82.40;;;28.20;;
37349;SDS011;23231;52.358;4.926;2022-12-18T04:35:16;80.00;;;26.90;;
37349;SDS011;23231;52.358;4.926;2022-12-18T04:40:16;83.83;;;26.73;;
37349;SDS011;23231;52.358;4.926;2022-12-18T04:45:17;81.47;;;27.30;;
37349;SDS011;23231;52.358;4.926;2022-12-18T04:50:17;70.57;;;25.90;;
37349;SDS011;23231;52.358;4.926;2022-12-18T04:55:18;72.40;;;24.73;;
37349;SDS011;23231;52.358;4.926;2022-12-18T05:00:18;80.47;;;25.90;;
37349;SDS011;23231;52.358;4.926;2022-12-18T05:05:19;74.63;;;26.73;;
37349;SDS011;23231;52.358;4.926;2022-12-18T05:10:20;64.50;;;24.37;;
37349;SDS011;23231;52.358;4.926;2022-12-18T05:15:20;66.33;;;24.60;;
37349;SDS011;23231;52.358;4.926;2022-12-18T05:20:21;67.57;;;23.87;;
37349;SDS011;23231;52.358;4.926;2022-12-18T05:25:21;77.30;;;26.40;;
37349;SDS011;23231;52.358;4.926;2022-12-18T05:30:22;65.67;;;24.93;;
37349;SDS011;23231;52.358;4.926;2022-12-18T05:35:23;61.07;;;24.10;;
37349;SDS011;23231;52.358;4.926;2022-12-18T05:40:23;63.70;;;24.50;;
37349;SDS011;23231;52.358;4.926;2022-12-18T05:45:23;65.73;;;26.13;;
37349;SDS011;23231;52.358;4.926;2022-12-18T05:50:24;67.33;;;25.53;;
37349;SDS011;23231;52.358;4.926;2022-12-18T05:55:24;67.53;;;23.27;;
37349;SDS011;23231;52.358;4.926;2022-12-18T06:00:26;66.40;;;25.60;;
37349;SDS011;23231;52.358;4.926;2022-12-18T06:05:27;67.63;;;24.73;;
37349;SDS011;23231;52.358;4.926;2022-12-18T06:10:27;72.73;;;24.67;;
37349;SDS011;23231;52.358;4.926;2022-12-18T06:15:28;64.77;;;25.63;;
37349;SDS011;23231;52.358;4.926;2022-12-18T06:20:29;55.60;;;23.97;;
37349;SDS011;23231;52.358;4.926;2022-12-18T06:25:30;53.30;;;23.50;;
37349;SDS011;23231;52.358;4.926;2022-12-18T06:30:30;56.87;;;23.67;;
37349;SDS011;23231;52.358;4.926;2022-12-18T06:35:31;58.57;;;22.53;;
37349;SDS011;23231;52.358;4.926;2022-12-18T06:40:32;54.60;;;22.80;;
37349;SDS011;23231;52.358;4.926;2022-12-18T06:45:32;55.83;;;22.83;;
37349;SDS011;23231;52.358;4.926;2022-12-18T06:50:33;47.17;;;20.30;;
37349;SDS011;23231;52.358;4.926;2022-12-18T06:55:33;52.67;;;20.93;;
37349;SDS011;23231;52.358;4.926;2022-12-18T07:00:34;51.60;;;20.37;;
37349;SDS011;23231;52.358;4.926;2022-12-18T07:05:36;48.57;;;18.80;;
37349;SDS011;23231;52.358;4.926;2022-12-18T07:10:43;49.17;;;19.37;;
37349;SDS011;23231;52.358;4.926;2022-12-18T07:15:43;44.93;;;19.23;;
37349;SDS011;23231;52.358;4.926;2022-12-18T07:20:44;34.90;;;16.47;;
37349;SDS011;23231;52.358;4.926;2022-12-18T07:25:45;38.03;;;16.97;;
37349;SDS011;23231;52.358;4.926;2022-12-18T07:30:45;36.73;;;16.50;;
37349;SDS011;23231;52.358;4.926;2022-12-18T07:35:45;40.67;;;16.27;;
37349;SDS011;23231;52.358;4.926;2022-12-18T07:40:46;34.63;;;15.90;;
37349;SDS011;23231;52.358;4.926;2022-12-18T07:45:48;36.93;;;16.30;;
37349;SDS011;23231;52.358;4.926;2022-12-18T07:50:49;34.07;;;15.77;;
37349;SDS011;23231;52.358;4.926;2022-12-18T07:55:54;34.93;;;16.40;;
